createdAt,value
2023-04-08T00:01:22.501Z,67.70
2023-04-08T00:03:50.990Z,68.00
2023-04-08T00:06:19.493Z,59.80
2023-04-08T00:08:47.886Z,56.80
2023-04-08T00:11:16.465Z,66.00
2023-04-08T00:13:44.931Z,64.00
2023-04-08T00:16:13.620Z,58.80
2023-04-08T00:18:43.036Z,60.40
2023-04-08T00:21:11.723Z,57.50
2023-04-08T00:23:40.616Z,88.10
2023-04-08T00:26:08.806Z,110.20
2023-04-08T00:28:38.397Z,97.30
2023-04-08T00:31:07.078Z,84.90
2023-04-08T00:33:35.902Z,83.50
2023-04-08T00:36:04.838Z,110.90
2023-04-08T00:38:33.708Z,131.80
2023-04-08T00:41:02.007Z,93.60
2023-04-08T00:43:30.569Z,95.60
2023-04-08T00:45:59.487Z,91.80
2023-04-08T00:48:28.254Z,82.60
2023-04-08T00:50:56.838Z,81.30
2023-04-08T00:53:25.887Z,80.30
2023-04-08T00:55:54.424Z,77.40
2023-04-08T00:58:23.196Z,68.40
2023-04-08T01:00:58.869Z,75.00
2023-04-08T01:04:16.968Z,74.10
2023-04-08T01:06:54.278Z,79.00
2023-04-08T01:09:28.288Z,80.10
2023-04-08T01:11:57.980Z,83.10
2023-04-08T01:14:28.434Z,78.70
2023-04-08T01:16:59.380Z,74.00
2023-04-08T01:19:33.392Z,75.30
2023-04-08T01:22:13.341Z,76.60
2023-04-08T01:24:44.393Z,77.00
2023-04-08T01:27:14.615Z,75.40
2023-04-08T01:29:44.535Z,74.80
2023-04-08T01:32:14.753Z,73.00
2023-04-08T01:34:45.500Z,79.60
2023-04-08T01:37:15.837Z,72.90
2023-04-08T01:39:45.954Z,75.60
2023-04-08T01:42:14.560Z,72.80
2023-04-08T01:44:43.600Z,64.60
2023-04-08T01:47:14.352Z,67.60
2023-04-08T01:49:44.507Z,73.80
2023-04-08T01:52:14.943Z,67.70
2023-04-08T01:54:43.424Z,66.90
2023-04-08T01:57:17.846Z,66.30
2023-04-08T01:59:51.652Z,66.80
2023-04-08T02:02:27.410Z,67.30
2023-04-08T02:04:56.815Z,76.20
2023-04-08T02:07:25.300Z,66.20
2023-04-08T02:09:53.464Z,72.10
2023-04-08T02:12:21.866Z,77.00
2023-04-08T02:14:50.052Z,67.30
2023-04-08T02:17:25.650Z,71.20
2023-04-08T02:20:11.247Z,72.20
2023-04-08T02:22:39.962Z,67.40
2023-04-08T02:25:17.994Z,68.40
2023-04-08T02:27:49.452Z,63.30
2023-04-08T02:30:19.142Z,66.70
2023-04-08T02:32:50.874Z,64.10
2023-04-08T02:35:20.555Z,64.10
2023-04-08T02:37:49.311Z,66.60
2023-04-08T02:40:25.536Z,66.80
2023-04-08T02:42:54.669Z,65.40
2023-04-08T02:45:27.654Z,70.40
2023-04-08T02:47:56.399Z,70.50
2023-04-08T02:50:25.140Z,73.30
2023-04-08T02:52:53.744Z,70.20
2023-04-08T02:55:22.216Z,68.90
2023-04-08T02:57:50.705Z,72.10
2023-04-08T03:00:19.214Z,68.60
2023-04-08T03:02:47.911Z,66.60
2023-04-08T03:05:17.101Z,73.20
2023-04-08T03:07:45.674Z,76.00
2023-04-08T03:10:14.059Z,72.70
2023-04-08T03:12:42.447Z,72.00
2023-04-08T03:15:11.035Z,73.70
2023-04-08T03:17:39.548Z,72.60
2023-04-08T03:20:09.400Z,80.50
2023-04-08T03:22:38.135Z,86.30
2023-04-08T03:25:07.039Z,85.70
2023-04-08T03:27:35.409Z,88.40
2023-04-08T03:30:04.147Z,86.00
2023-04-08T03:32:33.311Z,83.10
2023-04-08T03:35:01.795Z,90.70
2023-04-08T03:37:30.628Z,93.70
2023-04-08T03:39:58.971Z,89.50
2023-04-08T03:42:27.562Z,96.00
2023-04-08T03:44:56.254Z,94.50
2023-04-08T03:47:25.066Z,88.40
2023-04-08T03:49:54.966Z,91.00
2023-04-08T03:52:25.073Z,81.80
2023-04-08T03:54:53.382Z,83.70
2023-04-08T03:57:21.665Z,88.60
2023-04-08T03:59:49.833Z,118.40
2023-04-08T04:02:18.053Z,119.80
2023-04-08T04:04:46.871Z,87.80
2023-04-08T04:07:15.295Z,89.50
2023-04-08T04:09:43.571Z,104.60
2023-04-08T04:12:12.161Z,96.00
2023-04-08T04:14:40.954Z,86.80
2023-04-08T04:17:09.351Z,76.00
2023-04-08T04:19:38.031Z,74.90
2023-04-08T04:22:06.417Z,72.10
2023-04-08T04:24:34.907Z,76.30
2023-04-08T04:27:03.393Z,76.80
2023-04-08T04:29:33.225Z,75.50
2023-04-08T04:32:01.502Z,78.00
2023-04-08T04:34:29.976Z,84.10
2023-04-08T04:36:58.357Z,83.70
2023-04-08T04:39:27.568Z,86.70
2023-04-08T04:41:55.850Z,88.40
2023-04-08T04:44:24.353Z,84.70
2023-04-08T04:46:53.355Z,81.40
2023-04-08T04:49:22.226Z,82.40
2023-04-08T04:51:50.711Z,86.70
2023-04-08T04:54:19.096Z,83.10
2023-04-08T04:56:47.481Z,83.70
2023-04-08T04:59:15.971Z,85.30
2023-04-08T05:01:44.437Z,102.50
2023-04-08T05:04:12.842Z,94.20
2023-04-08T05:06:41.230Z,93.50
2023-04-08T05:09:09.417Z,90.20
2023-04-08T05:11:37.711Z,97.80
2023-04-08T05:14:07.305Z,95.20
2023-04-08T05:16:36.251Z,95.40
2023-04-08T05:19:05.003Z,103.90
2023-04-08T05:21:33.381Z,84.50
2023-04-08T05:24:01.781Z,72.90
2023-04-08T05:26:29.952Z,79.50
2023-04-08T05:28:58.467Z,85.10
2023-04-08T05:31:27.313Z,88.70
2023-04-08T05:33:55.816Z,81.80
2023-04-08T05:36:24.098Z,92.00
2023-04-08T05:38:52.551Z,84.10
2023-04-08T05:41:21.701Z,91.00
2023-04-08T05:43:49.976Z,89.50
2023-04-08T05:46:18.996Z,78.70
2023-04-08T05:48:48.040Z,88.30
2023-04-08T05:51:18.426Z,91.10
2023-04-08T05:53:47.293Z,81.10
2023-04-08T05:56:15.680Z,76.20
2023-04-08T05:58:44.063Z,69.30
2023-04-08T06:01:12.852Z,70.30
2023-04-08T06:03:41.419Z,59.00
2023-04-08T06:06:11.927Z,64.80
2023-04-08T06:08:41.244Z,64.30
2023-04-08T06:11:09.555Z,80.40
2023-04-08T06:13:38.560Z,86.10
2023-04-08T06:16:15.591Z,89.50
2023-04-08T06:18:44.328Z,89.20
2023-04-08T06:21:13.123Z,85.20
2023-04-08T06:23:42.036Z,93.60
2023-04-08T06:26:11.037Z,104.00
2023-04-08T06:28:39.502Z,82.90
2023-04-08T06:31:07.788Z,78.20
2023-04-08T06:33:36.069Z,70.70
2023-04-08T06:36:06.017Z,61.30
2023-04-08T06:38:34.584Z,59.90
2023-04-08T06:41:06.962Z,59.90
2023-04-08T06:43:38.024Z,64.50
2023-04-08T06:46:07.407Z,64.50
2023-04-08T06:48:37.905Z,56.00
2023-04-08T06:51:08.033Z,61.70
2023-04-08T06:53:36.557Z,118.40
2023-04-08T06:56:05.348Z,61.80
2023-04-08T06:58:33.467Z,58.50
2023-04-08T07:01:03.355Z,57.10
2023-04-08T07:03:31.994Z,60.20
2023-04-08T07:06:00.626Z,57.90
2023-04-08T07:08:29.119Z,61.30
2023-04-08T07:10:57.599Z,57.80
2023-04-08T07:13:26.190Z,63.30
2023-04-08T07:15:54.764Z,55.10
2023-04-08T07:18:23.958Z,55.70
2023-04-08T07:20:54.123Z,62.90
2023-04-08T07:23:23.108Z,59.10
2023-04-08T07:25:51.700Z,66.10
2023-04-08T07:28:22.632Z,57.30
2023-04-08T07:30:50.938Z,57.00
2023-04-08T07:33:20.123Z,58.50
2023-04-08T07:35:48.643Z,59.40
2023-04-08T07:38:17.194Z,55.30
2023-04-08T07:40:45.380Z,59.50
2023-04-08T07:43:13.761Z,61.40
2023-04-08T07:45:42.860Z,57.30
2023-04-08T07:48:11.396Z,64.50
2023-04-08T07:51:07.980Z,54.70
2023-04-08T07:53:28.787Z,55.80
2023-04-08T07:55:58.604Z,52.30
2023-04-08T07:58:27.459Z,54.00
2023-04-08T08:00:57.625Z,50.50
2023-04-08T08:03:26.110Z,49.20
2023-04-08T08:05:54.700Z,49.00
2023-04-08T08:08:23.083Z,55.10
2023-04-08T08:10:51.273Z,43.60
2023-04-08T08:13:22.415Z,41.80
2023-04-08T08:15:54.128Z,41.30
2023-04-08T08:18:22.563Z,38.60
2023-04-08T08:20:51.070Z,40.10
2023-04-08T08:23:19.331Z,40.20
2023-04-08T08:25:47.814Z,38.00
2023-04-08T08:28:15.994Z,43.60
2023-04-08T08:30:44.279Z,39.90
2023-04-08T08:33:12.867Z,39.00
2023-04-08T08:35:41.094Z,38.00
2023-04-08T08:38:09.532Z,37.40
2023-04-08T08:40:37.919Z,35.40
2023-04-08T08:43:06.302Z,37.90
2023-04-08T08:45:41.044Z,40.50
2023-04-08T08:48:09.845Z,42.90
2023-04-08T08:50:38.336Z,42.20
2023-04-08T08:53:06.798Z,48.40
2023-04-08T08:56:00.306Z,42.70
2023-04-08T08:58:28.059Z,45.20
2023-04-08T09:00:56.518Z,44.40
2023-04-08T09:03:29.631Z,38.50
2023-04-08T09:05:59.546Z,39.70
2023-04-08T09:08:34.680Z,34.60
2023-04-08T09:11:15.916Z,37.90
2023-04-08T09:13:45.575Z,33.10
2023-04-08T09:16:20.336Z,32.00
2023-04-08T09:18:50.006Z,29.30
2023-04-08T09:21:22.714Z,34.40
2023-04-08T09:23:53.190Z,33.00
2023-04-08T09:26:24.375Z,32.40
2023-04-08T09:29:14.287Z,35.30
2023-04-08T09:31:59.202Z,38.10
2023-04-08T09:34:29.803Z,37.50
2023-04-08T09:36:58.232Z,35.50
2023-04-08T09:39:26.605Z,41.30
2023-04-08T09:42:01.540Z,39.00
2023-04-08T09:44:33.387Z,33.60
2023-04-08T09:47:13.048Z,35.40
2023-04-08T09:49:50.434Z,36.90
2023-04-08T09:52:42.766Z,37.20
2023-04-08T09:55:14.457Z,37.60
2023-04-08T09:57:59.694Z,43.10
2023-04-08T10:00:32.679Z,42.60
2023-04-08T10:03:19.225Z,42.00
2023-04-08T10:05:49.918Z,43.40
2023-04-08T10:08:18.919Z,36.30
2023-04-08T10:10:48.140Z,35.30
2023-04-08T10:13:17.092Z,38.50
2023-04-08T10:15:47.818Z,36.00
2023-04-08T10:18:19.419Z,37.90
2023-04-08T10:20:49.476Z,35.40
2023-04-08T10:23:18.834Z,35.30
2023-04-08T10:25:48.707Z,38.50
2023-04-08T10:28:18.505Z,36.70
2023-04-08T10:30:51.575Z,36.20
2023-04-08T10:33:31.315Z,36.40
2023-04-08T10:36:12.132Z,35.60
2023-04-08T10:38:44.432Z,32.00
2023-04-08T10:41:21.817Z,35.30
2023-04-08T10:43:51.111Z,33.30
2023-04-08T10:46:20.063Z,30.30
2023-04-08T10:49:01.670Z,33.50
2023-04-08T10:51:35.243Z,31.30
2023-04-08T10:54:08.618Z,25.70
2023-04-08T10:56:43.982Z,27.40
2023-04-08T10:59:13.994Z,25.30
2023-04-08T11:01:45.291Z,23.10
2023-04-08T11:04:23.766Z,22.40
2023-04-08T11:06:52.291Z,24.50
2023-04-08T11:09:21.256Z,29.10
2023-04-08T11:11:49.747Z,26.00
2023-04-08T11:14:22.125Z,21.40
2023-04-08T11:16:52.204Z,22.20
2023-04-08T11:19:20.825Z,20.30
2023-04-08T11:21:51.562Z,25.60
2023-04-08T11:24:22.461Z,21.00
2023-04-08T11:26:51.330Z,19.40
2023-04-08T11:29:21.391Z,19.80
2023-04-08T11:31:51.557Z,15.70
2023-04-08T11:34:24.795Z,20.90
2023-04-08T11:36:53.462Z,18.10
2023-04-08T11:39:24.900Z,18.40
2023-04-08T11:41:53.476Z,23.00
2023-04-08T11:44:33.432Z,19.60
2023-04-08T11:47:02.837Z,18.40
2023-04-08T11:49:44.836Z,19.80
2023-04-08T11:52:13.985Z,22.90
2023-04-08T11:54:43.365Z,23.30
2023-04-08T11:57:11.928Z,25.30
2023-04-08T11:59:40.418Z,19.80
2023-04-08T12:02:09.450Z,20.30
2023-04-08T12:04:38.271Z,26.00
2023-04-08T12:07:06.692Z,18.50
2023-04-08T12:09:35.093Z,17.40
2023-04-08T12:12:03.568Z,18.10
2023-04-08T12:14:32.359Z,19.10
2023-04-08T12:17:01.360Z,22.00
2023-04-08T12:19:31.199Z,19.60
2023-04-08T12:22:00.788Z,19.80
2023-04-08T12:24:29.173Z,24.10
2023-04-08T12:26:57.965Z,26.80
2023-04-08T12:29:26.145Z,28.10
2023-04-08T12:31:54.735Z,25.80
2023-04-08T12:34:23.239Z,23.30
2023-04-08T12:36:51.610Z,21.90
2023-04-08T12:39:19.891Z,22.60
2023-04-08T12:41:48.482Z,27.10
2023-04-08T12:44:17.377Z,21.80
2023-04-08T12:46:46.574Z,23.10
2023-04-08T12:49:15.174Z,24.00
2023-04-08T12:51:43.660Z,26.40
2023-04-08T12:54:12.674Z,23.40
2023-04-08T12:56:43.394Z,24.00
2023-04-08T12:59:11.882Z,21.90
2023-04-08T13:01:40.196Z,22.90
2023-04-08T13:04:09.014Z,24.00
2023-04-08T13:06:37.344Z,20.50
2023-04-08T13:09:05.627Z,25.60
2023-04-08T13:11:34.367Z,23.10
2023-04-08T13:14:02.833Z,32.80
2023-04-08T13:16:31.319Z,27.60
2023-04-08T13:18:59.883Z,29.60
2023-04-08T13:21:28.365Z,25.50
2023-04-08T13:23:56.657Z,27.90
2023-04-08T13:26:25.138Z,29.40
2023-04-08T13:28:57.198Z,25.50
2023-04-08T13:31:26.886Z,24.30
2023-04-08T13:33:57.921Z,22.70
2023-04-08T13:36:29.069Z,27.00
2023-04-08T13:38:57.902Z,25.70
2023-04-08T13:41:28.334Z,29.20
2023-04-08T13:43:57.137Z,28.70
2023-04-08T13:46:26.145Z,28.10
2023-04-08T13:48:56.251Z,28.30
2023-04-08T13:51:24.849Z,27.40
2023-04-08T13:53:53.327Z,28.00
2023-04-08T13:56:21.707Z,29.40
2023-04-08T13:58:56.824Z,31.00
2023-04-08T14:01:25.999Z,26.50
2023-04-08T14:03:54.333Z,28.30
2023-04-08T14:06:23.337Z,28.40
2023-04-08T14:08:51.872Z,31.80
2023-04-08T14:11:21.531Z,28.30
2023-04-08T14:13:50.032Z,32.60
2023-04-08T14:16:18.988Z,27.70
2023-04-08T14:18:47.502Z,27.40
2023-04-08T14:21:18.368Z,26.70
2023-04-08T14:23:46.942Z,26.50
2023-04-08T14:26:16.032Z,27.20
2023-04-08T14:28:44.524Z,27.10
2023-04-08T14:31:13.253Z,24.30
2023-04-08T14:33:42.838Z,23.20
2023-04-08T14:36:12.411Z,23.70
2023-04-08T14:38:41.028Z,24.20
2023-04-08T14:41:09.413Z,26.00
2023-04-08T14:43:37.740Z,24.70
2023-04-08T14:46:06.393Z,22.50
2023-04-08T14:48:34.975Z,30.50
2023-04-08T14:51:04.506Z,24.90
2023-04-08T14:53:33.897Z,28.70
2023-04-08T14:56:02.283Z,24.50
2023-04-08T14:58:30.666Z,29.20
2023-04-08T15:00:58.946Z,30.50
2023-04-08T15:03:27.779Z,32.80
2023-04-08T15:05:59.837Z,36.60
2023-04-08T15:08:28.709Z,33.10
2023-04-08T15:10:57.289Z,36.20
2023-04-08T15:13:25.582Z,38.60
2023-04-08T15:15:54.909Z,36.80
2023-04-08T15:18:23.979Z,38.40
2023-04-08T15:20:52.873Z,40.20
2023-04-08T15:23:22.294Z,39.70
2023-04-08T15:25:51.182Z,36.00
2023-04-08T15:28:19.664Z,38.30
2023-04-08T15:30:49.595Z,37.00
2023-04-08T15:33:17.973Z,38.70
2023-04-08T15:35:49.820Z,35.70
2023-04-08T15:38:18.666Z,38.70
2023-04-08T15:40:48.213Z,40.60
2023-04-08T15:43:16.932Z,34.70
2023-04-08T15:45:46.955Z,36.40
2023-04-08T15:48:15.980Z,35.00
2023-04-08T15:50:44.597Z,40.20
2023-04-08T15:53:13.227Z,38.70
2023-04-08T15:55:42.188Z,39.20
2023-04-08T15:58:10.618Z,40.80
2023-04-08T16:00:39.105Z,44.40
2023-04-08T16:03:09.197Z,40.20
2023-04-08T16:05:39.878Z,36.70
2023-04-08T16:08:08.451Z,40.30
2023-04-08T16:10:36.829Z,44.20
2023-04-08T16:13:05.423Z,37.70
2023-04-08T16:15:34.828Z,38.00
2023-04-08T16:18:04.762Z,42.70
2023-04-08T16:20:33.441Z,41.90
2023-04-08T16:23:01.831Z,40.80
2023-04-08T16:25:30.516Z,39.10
2023-04-08T16:27:59.214Z,48.40
2023-04-08T16:30:27.927Z,45.00
2023-04-08T16:32:56.440Z,49.10
2023-04-08T16:35:24.975Z,50.20
2023-04-08T16:37:53.265Z,49.10
2023-04-08T16:40:22.274Z,48.30
2023-04-08T16:42:51.374Z,57.10
2023-04-08T16:45:19.767Z,71.60
2023-04-08T16:47:48.580Z,59.60
2023-04-08T16:50:17.437Z,50.10
2023-04-08T16:52:49.626Z,54.30
2023-04-08T16:55:19.480Z,46.50
2023-04-08T16:57:48.011Z,49.10
2023-04-08T17:00:18.613Z,54.50
2023-04-08T17:02:49.372Z,62.30
2023-04-08T17:05:18.179Z,60.20
2023-04-08T17:07:46.775Z,56.30
2023-04-08T17:10:16.020Z,57.00
2023-04-08T17:12:44.766Z,57.10
2023-04-08T17:15:13.458Z,64.10
2023-04-08T17:17:42.155Z,58.20
2023-04-08T17:20:11.658Z,53.00
2023-04-08T17:22:39.950Z,50.10
2023-04-08T17:25:08.942Z,53.40
2023-04-08T17:27:37.950Z,55.30
2023-04-08T17:30:08.367Z,55.70
2023-04-08T17:32:37.847Z,56.90
2023-04-08T17:35:06.700Z,60.60
2023-04-08T17:37:35.061Z,54.60
2023-04-08T17:40:03.662Z,66.80
2023-04-08T17:42:32.456Z,61.40
2023-04-08T17:45:02.881Z,69.50
2023-04-08T17:47:31.537Z,72.80
2023-04-08T17:49:59.846Z,72.50
2023-04-08T17:52:28.238Z,71.20
2023-04-08T17:54:56.819Z,67.20
2023-04-08T17:57:25.211Z,58.70
2023-04-08T17:59:53.597Z,62.10
2023-04-08T18:02:22.552Z,59.30
2023-04-08T18:04:51.383Z,57.90
2023-04-08T18:07:19.971Z,50.50
2023-04-08T18:09:51.018Z,58.10
2023-04-08T18:12:20.113Z,51.40
2023-04-08T18:14:48.607Z,53.90
2023-04-08T18:17:17.090Z,47.90
2023-04-08T18:19:45.474Z,49.70
2023-04-08T18:22:16.006Z,72.80
2023-04-08T18:24:44.597Z,59.00
2023-04-08T18:27:12.982Z,53.50
2023-04-08T18:29:41.364Z,54.40
2023-04-08T18:32:09.952Z,48.40
2023-04-08T18:34:39.156Z,55.90
2023-04-08T18:37:07.444Z,56.70
2023-04-08T18:39:40.207Z,60.90
2023-04-08T18:42:08.614Z,60.10
2023-04-08T18:44:37.598Z,60.50
2023-04-08T18:47:07.412Z,57.90
2023-04-08T18:49:38.604Z,57.80
2023-04-08T18:52:08.558Z,62.10
2023-04-08T18:54:36.981Z,57.10
2023-04-08T18:57:05.468Z,50.20
2023-04-08T18:59:34.064Z,55.10
2023-04-08T19:02:02.535Z,64.60
2023-04-08T19:04:31.190Z,60.70
2023-04-08T19:06:59.413Z,55.20
2023-04-08T19:09:28.104Z,58.70
2023-04-08T19:11:56.586Z,60.50
2023-04-08T19:14:26.273Z,59.50
2023-04-08T19:16:54.899Z,57.90
2023-04-08T19:19:23.276Z,61.80
2023-04-08T19:21:51.669Z,60.20
2023-04-08T19:24:21.170Z,63.40
2023-04-08T19:26:52.112Z,58.10
2023-04-08T19:29:23.175Z,57.80
2023-04-08T19:31:51.543Z,63.80
2023-04-08T19:34:20.235Z,62.90
2023-04-08T19:36:48.728Z,63.60
2023-04-08T19:39:17.314Z,59.10
2023-04-08T19:41:46.274Z,60.10
2023-04-08T19:44:14.593Z,63.30
2023-04-08T19:46:43.509Z,60.40
2023-04-08T19:49:12.080Z,57.00
2023-04-08T19:51:40.564Z,61.60
2023-04-08T19:54:09.061Z,60.40
2023-04-08T19:56:37.332Z,54.70
2023-04-08T19:59:06.124Z,55.50
2023-04-08T20:01:36.430Z,59.20
2023-04-08T20:04:05.317Z,55.30
2023-04-08T20:06:34.963Z,61.30
2023-04-08T20:09:05.840Z,61.80
2023-04-08T20:11:34.499Z,55.50
2023-04-08T20:14:04.220Z,54.10
2023-04-08T20:16:34.412Z,53.40
2023-04-08T20:19:03.028Z,51.00
2023-04-08T20:21:31.516Z,60.90
2023-04-08T20:24:00.414Z,57.70
2023-04-08T20:26:29.001Z,57.30
2023-04-08T20:28:59.026Z,60.50
2023-04-08T20:31:28.193Z,60.80
2023-04-08T20:33:56.714Z,62.40
2023-04-08T20:36:25.422Z,57.50
2023-04-08T20:38:55.187Z,59.60
2023-04-08T20:41:24.527Z,59.80
2023-04-08T20:43:54.244Z,61.80
2023-04-08T20:46:24.799Z,66.00
2023-04-08T20:48:53.858Z,64.30
2023-04-08T20:51:22.469Z,62.20
2023-04-08T20:53:51.167Z,68.10
2023-04-08T20:56:19.645Z,75.60
2023-04-08T20:58:47.929Z,66.10
2023-04-08T21:01:16.663Z,65.80
2023-04-08T21:03:52.837Z,70.00
2023-04-08T21:06:22.258Z,67.30
2023-04-08T21:08:51.588Z,70.20
2023-04-08T21:11:20.185Z,71.60
2023-04-08T21:13:49.281Z,71.30
2023-04-08T21:16:18.025Z,70.70
2023-04-08T21:18:46.876Z,78.30
2023-04-08T21:21:15.264Z,67.90
2023-04-08T21:23:43.851Z,74.70
2023-04-08T21:26:13.679Z,78.00
2023-04-08T21:28:42.169Z,68.40
2023-04-08T21:31:12.087Z,72.30
2023-04-08T21:33:40.771Z,73.80
2023-04-08T21:36:09.282Z,67.10
2023-04-08T21:38:37.634Z,74.60
2023-04-08T21:41:06.025Z,71.00
2023-04-08T21:43:34.404Z,65.70
2023-04-08T21:46:03.818Z,65.90
2023-04-08T21:48:33.120Z,63.60
2023-04-08T21:51:01.941Z,70.90
2023-04-08T21:53:30.913Z,65.80
2023-04-08T21:55:59.391Z,72.40
2023-04-08T21:58:28.497Z,66.30
2023-04-08T22:00:57.102Z,72.30
2023-04-08T22:03:25.710Z,65.10
2023-04-08T22:05:54.273Z,61.70
2023-04-08T22:08:23.366Z,67.10
2023-04-08T22:10:52.054Z,64.00
2023-04-08T22:13:21.476Z,69.80
2023-04-08T22:15:49.888Z,73.80
2023-04-08T22:18:18.228Z,69.60
2023-04-08T22:20:47.228Z,76.00
2023-04-08T22:23:16.257Z,68.60
2023-04-08T22:25:44.859Z,69.90
2023-04-08T22:28:13.105Z,67.10
2023-04-08T22:30:41.625Z,70.40
2023-04-08T22:33:10.096Z,66.80
2023-04-08T22:35:40.849Z,66.40
2023-04-08T22:38:09.300Z,73.60
2023-04-08T22:40:37.888Z,71.70
2023-04-08T22:43:07.106Z,71.50
2023-04-08T22:45:37.363Z,73.40
2023-04-08T22:48:06.384Z,76.90
2023-04-08T22:50:35.011Z,75.50
2023-04-08T22:53:04.019Z,72.00
2023-04-08T22:55:32.388Z,74.80
2023-04-08T22:58:06.512Z,71.50
2023-04-08T23:00:35.301Z,72.40
2023-04-08T23:03:05.036Z,72.00
2023-04-08T23:05:34.100Z,72.20
2023-04-08T23:08:02.608Z,73.00
2023-04-08T23:10:30.884Z,74.10
2023-04-08T23:12:59.277Z,77.00
2023-04-08T23:15:28.160Z,70.10
2023-04-08T23:17:56.883Z,86.60
2023-04-08T23:20:32.920Z,72.30
2023-04-08T23:23:02.747Z,70.80
2023-04-08T23:25:31.011Z,64.20
2023-04-08T23:27:59.293Z,66.60
2023-04-08T23:30:27.781Z,63.50
2023-04-08T23:32:56.217Z,62.40
2023-04-08T23:35:24.753Z,59.70
2023-04-08T23:37:53.142Z,69.40
2023-04-08T23:40:21.732Z,69.10
2023-04-08T23:42:52.979Z,69.90
2023-04-08T23:45:21.589Z,67.40
2023-04-08T23:47:50.848Z,65.00
2023-04-08T23:50:23.206Z,66.90
2023-04-08T23:52:51.636Z,68.50
2023-04-08T23:55:20.142Z,68.80
2023-04-08T23:57:50.858Z,66.20
